createdAt,value
2018-07-10T00:03:47.082Z,58.60
2018-07-10T00:08:28.925Z,58.30
2018-07-10T00:11:40.049Z,58.60
2018-07-10T00:14:09.475Z,58.40
2018-07-10T00:16:38.704Z,58.40
2018-07-10T00:19:08.090Z,58.50
2018-07-10T00:21:37.500Z,58.50
2018-07-10T00:24:07.029Z,58.50
2018-07-10T00:26:36.691Z,58.50
2018-07-10T00:29:06.022Z,58.40
2018-07-10T00:31:35.543Z,58.50
2018-07-10T00:34:04.729Z,59.10
2018-07-10T00:36:34.098Z,58.50
2018-07-10T00:39:06.971Z,58.50
2018-07-10T00:41:37.412Z,58.40
2018-07-10T00:44:07.279Z,58.60
2018-07-10T00:46:38.138Z,58.30
2018-07-10T00:49:07.466Z,58.40
2018-07-10T00:51:40.039Z,58.30
2018-07-10T00:54:09.758Z,58.30
2018-07-10T00:56:39.391Z,58.80
2018-07-10T00:59:08.736Z,58.30
2018-07-10T01:01:41.742Z,58.30
2018-07-10T01:04:10.937Z,59.00
2018-07-10T01:06:40.342Z,58.50
2018-07-10T01:09:14.166Z,58.40
2018-07-10T01:11:43.462Z,58.50
2018-07-10T01:14:12.942Z,58.60
2018-07-10T01:16:42.503Z,58.70
2018-07-10T01:19:14.882Z,58.80
2018-07-10T01:21:44.741Z,58.70
2018-07-10T01:24:15.470Z,58.70
2018-07-10T01:26:44.925Z,58.40
2018-07-10T01:29:21.165Z,58.40
2018-07-10T01:31:52.734Z,58.70
2018-07-10T01:34:22.760Z,58.30
2018-07-10T01:36:52.965Z,58.30
2018-07-10T01:39:22.535Z,58.30
2018-07-10T01:41:52.104Z,57.40
2018-07-10T01:44:21.446Z,57.30
2018-07-10T01:46:50.866Z,57.30
2018-07-10T01:49:20.220Z,57.30
2018-07-10T01:51:49.612Z,57.30
2018-07-10T01:54:19.113Z,57.20
2018-07-10T01:56:49.096Z,56.90
2018-07-10T01:59:18.404Z,56.50
2018-07-10T02:01:47.838Z,56.30
2018-07-10T02:04:17.340Z,56.30
2018-07-10T02:06:46.550Z,56.30
2018-07-10T02:09:15.885Z,56.50
2018-07-10T02:11:45.213Z,56.30
2018-07-10T02:14:14.959Z,55.60
2018-07-10T02:16:44.233Z,55.20
2018-07-10T02:19:13.771Z,55.30
2018-07-10T02:21:43.202Z,56.60
2018-07-10T02:24:13.427Z,55.80
2018-07-10T02:26:42.845Z,56.00
2018-07-10T02:29:12.110Z,56.00
2018-07-10T02:31:42.022Z,55.80
2018-07-10T02:34:11.452Z,57.50
2018-07-10T02:36:40.865Z,58.70
2018-07-10T02:39:10.162Z,58.50
2018-07-10T02:41:39.590Z,58.40
2018-07-10T02:44:08.948Z,59.10
2018-07-10T02:46:38.562Z,59.00
2018-07-10T02:49:17.205Z,59.60
2018-07-10T02:51:54.118Z,60.00
2018-07-10T02:54:25.879Z,60.50
2018-07-10T02:56:56.785Z,61.00
2018-07-10T02:59:32.610Z,61.30
2018-07-10T03:02:02.185Z,62.20
2018-07-10T03:04:33.011Z,62.40
2018-07-10T03:07:02.415Z,62.40
2018-07-10T03:09:31.946Z,62.40
2018-07-10T03:12:02.081Z,62.80
2018-07-10T03:14:31.319Z,63.40
2018-07-10T03:17:01.143Z,63.10
2018-07-10T03:19:30.887Z,63.00
2018-07-10T03:22:00.478Z,62.80
2018-07-10T03:24:29.867Z,62.50
2018-07-10T03:26:59.352Z,62.60
2018-07-10T03:29:28.794Z,62.70
2018-07-10T03:31:58.229Z,62.60
2018-07-10T03:34:27.574Z,62.50
2018-07-10T03:36:56.915Z,62.50
2018-07-10T03:39:26.126Z,62.70
2018-07-10T03:41:55.476Z,63.00
2018-07-10T03:44:25.503Z,64.50
2018-07-10T03:46:55.061Z,63.20
2018-07-10T03:49:24.583Z,63.20
2018-07-10T03:51:54.588Z,62.10
2018-07-10T03:54:24.335Z,63.00
2018-07-10T03:56:53.989Z,62.60
2018-07-10T03:59:24.198Z,62.30
2018-07-10T04:01:53.533Z,62.00
2018-07-10T04:04:23.197Z,62.10
2018-07-10T04:06:52.999Z,62.10
2018-07-10T04:09:22.455Z,63.40
2018-07-10T04:11:52.324Z,62.60
2018-07-10T04:14:23.061Z,60.80
2018-07-10T04:16:53.218Z,60.50
2018-07-10T04:19:23.846Z,60.80
2018-07-10T04:21:57.325Z,60.20
2018-07-10T04:24:26.919Z,60.10
2018-07-10T04:27:05.010Z,59.80
2018-07-10T04:29:40.007Z,60.70
2018-07-10T04:32:12.770Z,61.10
2018-07-10T04:34:43.336Z,62.10
2018-07-10T04:37:14.442Z,61.50
2018-07-10T04:39:44.969Z,63.00
2018-07-10T04:42:22.452Z,63.10
2018-07-10T04:45:11.808Z,62.50
2018-07-10T04:47:44.193Z,61.40
2018-07-10T04:50:23.485Z,60.80
2018-07-10T04:52:54.773Z,60.80
2018-07-10T04:55:24.259Z,61.40
2018-07-10T04:58:03.214Z,60.80
2018-07-10T05:00:33.938Z,60.80
2018-07-10T05:03:03.793Z,60.90
2018-07-10T05:05:34.299Z,61.00
2018-07-10T05:08:05.426Z,61.30
2018-07-10T05:10:35.966Z,61.40
2018-07-10T05:13:06.971Z,61.90
2018-07-10T05:15:36.972Z,61.50
2018-07-10T05:18:10.917Z,62.00
2018-07-10T05:20:44.921Z,61.20
2018-07-10T05:23:15.203Z,62.00
2018-07-10T05:25:48.158Z,64.10
2018-07-10T05:28:17.851Z,61.90
2018-07-10T05:30:47.457Z,61.80
2018-07-10T05:33:17.330Z,62.50
2018-07-10T05:35:46.655Z,61.20
2018-07-10T05:38:18.158Z,61.50
2018-07-10T05:40:47.885Z,61.30
2018-07-10T05:43:17.258Z,61.20
2018-07-10T05:45:46.691Z,61.20
2018-07-10T05:48:18.386Z,62.70
2018-07-10T05:50:47.897Z,61.40
2018-07-10T05:53:17.577Z,61.70
2018-07-10T05:55:49.485Z,62.40
2018-07-10T05:58:18.810Z,61.40
2018-07-10T06:00:47.934Z,61.30
2018-07-10T06:03:17.392Z,61.60
2018-07-10T06:05:46.962Z,61.80
2018-07-10T06:08:16.555Z,61.70
2018-07-10T06:10:45.950Z,61.50
2018-07-10T06:13:15.581Z,61.70
2018-07-10T06:15:45.041Z,62.60
2018-07-10T06:18:14.858Z,62.00
2018-07-10T06:20:44.332Z,62.10
2018-07-10T06:23:14.040Z,63.30
2018-07-10T06:25:43.648Z,62.00
2018-07-10T06:28:16.854Z,64.50
2018-07-10T06:30:46.338Z,64.20
2018-07-10T06:33:26.349Z,63.70
2018-07-10T06:36:04.338Z,62.20
2018-07-10T06:38:33.638Z,61.30
2018-07-10T06:41:03.254Z,60.10
2018-07-10T06:43:39.708Z,59.50
2018-07-10T06:46:09.226Z,58.90
2018-07-10T06:48:42.059Z,59.10
2018-07-10T06:51:16.594Z,58.90
2018-07-10T06:53:48.085Z,58.50
2018-07-10T06:56:25.691Z,57.40
2018-07-10T06:58:55.970Z,56.60
2018-07-10T07:01:25.987Z,55.80
2018-07-10T07:04:00.123Z,54.70
2018-07-10T07:06:30.284Z,54.80
2018-07-10T07:08:59.851Z,53.10
2018-07-10T07:11:29.444Z,52.30
2018-07-10T07:13:59.022Z,51.70
2018-07-10T07:16:28.398Z,50.30
2018-07-10T07:18:58.023Z,51.20
2018-07-10T07:21:27.354Z,48.10
2018-07-10T07:23:56.812Z,46.80
2018-07-10T07:26:26.257Z,44.40
2018-07-10T07:28:56.246Z,43.60
2018-07-10T07:31:25.687Z,43.30
2018-07-10T07:33:55.046Z,43.20
2018-07-10T07:36:24.306Z,42.60
2018-07-10T07:38:53.534Z,42.30
2018-07-10T07:41:22.878Z,41.90
2018-07-10T07:43:52.442Z,42.30
2018-07-10T07:46:21.805Z,41.60
2018-07-10T07:48:51.078Z,42.20
2018-07-10T07:51:20.434Z,41.50
2018-07-10T07:53:50.613Z,43.10
2018-07-10T07:56:20.068Z,43.00
2018-07-10T07:58:49.480Z,41.80
2018-07-10T08:01:18.962Z,41.40
2018-07-10T08:03:48.297Z,41.40
2018-07-10T08:06:17.680Z,41.20
2018-07-10T08:08:47.055Z,41.20
2018-07-10T08:11:16.454Z,41.40
2018-07-10T08:13:45.930Z,42.70
2018-07-10T08:16:15.198Z,41.50
2018-07-10T08:18:44.718Z,40.80
2018-07-10T08:21:14.222Z,40.90
2018-07-10T08:23:43.639Z,40.30
2018-07-10T08:26:13.093Z,39.30
2018-07-10T08:28:42.434Z,39.00
2018-07-10T08:31:11.964Z,39.90
2018-07-10T08:33:41.608Z,39.60
2018-07-10T08:36:10.895Z,38.70
2018-07-10T08:38:41.573Z,38.30
2018-07-10T08:41:26.643Z,38.90
2018-07-10T08:43:56.108Z,39.70
2018-07-10T08:46:29.228Z,40.10
2018-07-10T08:48:58.806Z,40.50
2018-07-10T08:51:28.437Z,40.20
2018-07-10T08:53:57.858Z,39.80
2018-07-10T08:56:27.218Z,41.20
2018-07-10T08:58:56.512Z,41.40
2018-07-10T09:01:26.502Z,41.80
2018-07-10T09:03:55.883Z,41.20
2018-07-10T09:06:25.255Z,41.30
2018-07-10T09:08:54.736Z,40.30
2018-07-10T09:11:23.998Z,38.80
2018-07-10T09:13:53.354Z,38.00
2018-07-10T09:16:22.862Z,38.40
2018-07-10T09:18:52.319Z,39.70
2018-07-10T09:21:21.872Z,39.00
2018-07-10T09:23:51.314Z,39.60
2018-07-10T09:26:20.704Z,39.00
2018-07-10T09:28:50.339Z,38.40
2018-07-10T09:31:19.645Z,39.50
2018-07-10T09:33:49.373Z,39.80
2018-07-10T09:36:18.745Z,40.10
2018-07-10T09:38:47.926Z,41.50
2018-07-10T09:41:17.276Z,41.50
2018-07-10T09:43:47.979Z,40.30
2018-07-10T09:46:17.468Z,40.00
2018-07-10T09:48:46.746Z,40.30
2018-07-10T09:51:15.916Z,40.90
2018-07-10T09:53:45.366Z,41.40
2018-07-10T09:56:14.761Z,40.80
2018-07-10T09:58:44.210Z,40.90
2018-07-10T10:01:18.645Z,39.90
2018-07-10T10:03:48.087Z,39.80
2018-07-10T10:06:18.752Z,39.20
2018-07-10T10:08:48.401Z,39.00
2018-07-10T10:11:17.738Z,38.00
2018-07-10T10:13:47.230Z,37.60
2018-07-10T10:16:16.606Z,38.20
2018-07-10T10:18:46.118Z,36.80
2018-07-10T10:21:15.397Z,36.00
2018-07-10T10:23:45.678Z,35.50
2018-07-10T10:26:15.335Z,34.10
2018-07-10T10:28:45.023Z,34.90
2018-07-10T10:31:14.502Z,34.70
2018-07-10T10:33:44.011Z,34.40
2018-07-10T10:36:13.553Z,34.50
2018-07-10T10:38:46.057Z,34.00
2018-07-10T10:41:17.443Z,33.90
2018-07-10T10:43:47.649Z,34.50
2018-07-10T10:46:19.852Z,35.40
2018-07-10T10:48:49.275Z,36.50
2018-07-10T10:51:20.518Z,36.90
2018-07-10T10:53:49.846Z,38.10
2018-07-10T10:56:19.014Z,38.30
2018-07-10T10:58:48.647Z,39.20
2018-07-10T11:01:18.113Z,40.40
2018-07-10T11:03:47.629Z,41.60
2018-07-10T11:06:16.901Z,41.90
2018-07-10T11:08:46.378Z,42.50
2018-07-10T11:11:15.728Z,43.60
2018-07-10T11:13:45.486Z,45.60
2018-07-10T11:16:14.789Z,49.10
2018-07-10T11:18:51.619Z,66.10
2018-07-10T11:21:28.751Z,91.40
2018-07-10T11:23:59.106Z,95.50
2018-07-10T11:26:36.791Z,98.10
2018-07-10T11:29:07.158Z,96.40
2018-07-10T11:31:37.128Z,99.90
2018-07-10T11:34:07.300Z,99.90
2018-07-10T11:36:37.048Z,99.90
2018-07-10T11:39:09.984Z,99.90
2018-07-10T11:41:43.359Z,99.90
2018-07-10T11:44:12.963Z,99.90
2018-07-10T11:46:42.487Z,99.90
2018-07-10T11:49:11.954Z,99.90
2018-07-10T11:51:41.489Z,99.90
2018-07-10T11:54:10.968Z,99.90
2018-07-10T11:56:40.517Z,99.90
2018-07-10T11:59:10.082Z,99.90
2018-07-10T12:01:43.326Z,99.90
2018-07-10T12:04:12.724Z,99.90
2018-07-10T12:06:51.656Z,99.90
2018-07-10T12:09:21.339Z,99.90
2018-07-10T12:11:50.927Z,99.90
2018-07-10T12:14:20.442Z,99.90
2018-07-10T12:16:49.948Z,99.90
2018-07-10T12:19:19.563Z,99.90
2018-07-10T12:21:49.050Z,99.90
2018-07-10T12:24:18.606Z,99.90
2018-07-10T12:26:48.218Z,99.90
2018-07-10T12:29:17.776Z,99.90
2018-07-10T12:31:47.226Z,99.90
2018-07-10T12:34:16.890Z,99.90
2018-07-10T12:36:46.307Z,99.90
2018-07-10T12:39:15.893Z,99.90
2018-07-10T12:41:45.392Z,99.90
2018-07-10T12:44:14.839Z,99.90
2018-07-10T12:46:44.346Z,99.90
2018-07-10T12:49:13.727Z,99.90
2018-07-10T12:51:43.252Z,99.90
2018-07-10T12:54:12.805Z,99.90
2018-07-10T12:56:42.424Z,99.90
2018-07-10T12:59:12.251Z,99.90
2018-07-10T13:01:42.288Z,99.90
2018-07-10T13:04:11.742Z,99.90
2018-07-10T13:06:41.066Z,99.90
2018-07-10T13:09:10.472Z,99.90
2018-07-10T13:11:40.112Z,99.90
2018-07-10T13:14:09.584Z,99.90
2018-07-10T13:16:38.964Z,99.90
2018-07-10T13:19:09.040Z,99.90
2018-07-10T13:21:38.555Z,99.90
2018-07-10T13:24:08.136Z,99.90
2018-07-10T13:26:37.618Z,99.90
2018-07-10T13:29:07.120Z,99.90
2018-07-10T13:31:36.627Z,99.90
2018-07-10T13:34:06.333Z,99.90
2018-07-10T13:36:36.766Z,99.90
2018-07-10T13:39:07.087Z,99.90
2018-07-10T13:41:36.908Z,99.90
2018-07-10T13:44:06.436Z,99.90
2018-07-10T13:46:35.803Z,99.90
2018-07-10T13:49:05.277Z,99.90
2018-07-10T13:51:34.728Z,99.90
2018-07-10T13:54:04.181Z,99.90
2018-07-10T13:56:33.681Z,99.90
2018-07-10T13:59:03.110Z,99.90
2018-07-10T14:01:32.618Z,99.90
2018-07-10T14:04:01.878Z,99.90
2018-07-10T14:06:31.211Z,99.90
2018-07-10T14:09:00.638Z,99.90
2018-07-10T14:11:30.134Z,99.90
2018-07-10T14:13:59.491Z,99.90
2018-07-10T14:16:28.950Z,99.90
2018-07-10T14:19:00.087Z,99.90
2018-07-10T14:21:29.470Z,99.90
2018-07-10T14:23:58.934Z,99.90
2018-07-10T14:26:28.292Z,99.90
2018-07-10T14:28:57.711Z,99.90
2018-07-10T14:31:27.126Z,99.90
2018-07-10T14:33:56.441Z,99.90
2018-07-10T14:36:25.595Z,99.90
2018-07-10T14:38:54.991Z,99.90
2018-07-10T14:41:24.365Z,99.90
2018-07-10T14:43:54.105Z,99.90
2018-07-10T14:46:25.339Z,99.90
2018-07-10T14:48:57.718Z,99.90
2018-07-10T14:51:40.878Z,99.90
2018-07-10T14:54:10.504Z,99.90
2018-07-10T14:56:39.932Z,99.90
2018-07-10T14:59:10.351Z,99.90
2018-07-10T15:01:40.518Z,99.90
2018-07-10T15:04:10.305Z,99.90
2018-07-10T15:06:39.846Z,99.90
2018-07-10T15:09:09.896Z,99.90
2018-07-10T15:11:40.216Z,99.90
2018-07-10T15:14:10.809Z,99.90
2018-07-10T15:16:48.727Z,99.90
2018-07-10T15:19:18.222Z,99.90
2018-07-10T15:21:47.832Z,99.90
2018-07-10T15:24:17.372Z,99.90
2018-07-10T15:26:47.101Z,99.90
2018-07-10T15:29:21.562Z,99.90
2018-07-10T15:31:51.070Z,99.90
2018-07-10T15:34:20.477Z,99.90
2018-07-10T15:36:50.082Z,99.90
2018-07-10T15:39:19.514Z,99.90
2018-07-10T15:41:49.349Z,99.90
2018-07-10T15:44:18.739Z,99.90
2018-07-10T15:46:48.165Z,99.90
2018-07-10T15:49:17.479Z,99.90
2018-07-10T15:51:47.133Z,99.90
2018-07-10T15:54:16.620Z,99.90
2018-07-10T15:56:46.951Z,99.90
2018-07-10T15:59:16.545Z,99.90
2018-07-10T16:01:46.255Z,99.90
2018-07-10T16:04:17.164Z,99.90
2018-07-10T16:06:47.530Z,99.90
2018-07-10T16:09:19.612Z,99.90
2018-07-10T16:11:56.144Z,99.90
2018-07-10T16:14:29.821Z,99.90
2018-07-10T16:17:01.038Z,99.90
2018-07-10T16:19:37.099Z,99.90
2018-07-10T16:22:09.915Z,99.90
2018-07-10T16:24:48.146Z,99.90
2018-07-10T16:27:25.862Z,99.90
2018-07-10T16:29:56.488Z,99.90
2018-07-10T16:32:27.761Z,99.90
2018-07-10T16:34:59.359Z,99.90
2018-07-10T16:37:29.628Z,99.90
2018-07-10T16:40:06.357Z,99.90
2018-07-10T16:42:41.163Z,99.90
2018-07-10T16:45:12.232Z,99.90
2018-07-10T16:47:51.574Z,99.90
2018-07-10T16:50:21.768Z,99.90
2018-07-10T16:52:54.659Z,99.90
2018-07-10T16:55:24.123Z,99.90
2018-07-10T16:57:53.934Z,99.90
2018-07-10T17:00:25.235Z,99.90
2018-07-10T17:02:55.791Z,99.90
2018-07-10T17:05:26.512Z,99.90
2018-07-10T17:07:56.557Z,99.90
2018-07-10T17:10:29.323Z,99.90
2018-07-10T17:13:01.645Z,99.90
2018-07-10T17:15:31.602Z,99.90
2018-07-10T17:18:03.139Z,99.90
2018-07-10T17:20:33.556Z,99.90
2018-07-10T17:23:08.274Z,99.90
2018-07-10T17:25:38.773Z,99.90
2018-07-10T17:28:12.530Z,99.90
2018-07-10T17:30:44.738Z,99.90
2018-07-10T17:33:14.760Z,99.90
2018-07-10T17:35:44.927Z,99.90
2018-07-10T17:38:19.099Z,99.90
2018-07-10T17:40:50.333Z,99.90
2018-07-10T17:43:24.218Z,99.90
2018-07-10T17:45:53.882Z,99.90
2018-07-10T17:48:23.719Z,99.90
2018-07-10T17:50:53.288Z,99.90
2018-07-10T17:53:23.092Z,99.90
2018-07-10T17:55:52.810Z,99.90
2018-07-10T17:58:24.469Z,99.90
2018-07-10T18:00:55.285Z,99.90
2018-07-10T18:03:25.222Z,99.90
2018-07-10T18:05:57.822Z,99.90
2018-07-10T18:08:31.692Z,99.90
2018-07-10T18:11:03.590Z,99.90
2018-07-10T18:13:35.955Z,99.90
2018-07-10T18:16:45.273Z,99.90
2018-07-10T18:19:15.562Z,99.90
2018-07-10T18:21:46.514Z,99.90
2018-07-10T18:24:16.738Z,99.90
2018-07-10T18:26:48.954Z,99.90
2018-07-10T18:29:19.034Z,99.90
2018-07-10T18:35:03.084Z,99.90
2018-07-10T18:37:36.907Z,99.90
2018-07-10T18:43:10.107Z,99.90
2018-07-10T18:45:43.502Z,99.90
2018-07-10T18:48:13.062Z,99.90
2018-07-10T18:50:42.762Z,99.90
2018-07-10T18:53:12.436Z,99.90
2018-07-10T18:55:41.997Z,99.90
2018-07-10T18:58:20.148Z,99.90
2018-07-10T19:01:21.420Z,99.90
2018-07-10T19:03:51.498Z,99.90
2018-07-10T19:06:24.606Z,99.90
2018-07-10T19:08:54.311Z,99.90
2018-07-10T19:11:26.216Z,99.90
2018-07-10T19:13:58.619Z,99.90
2018-07-10T19:16:28.296Z,99.90
2018-07-10T19:19:01.817Z,99.90
2018-07-10T19:21:34.306Z,99.90
2018-07-10T19:24:06.919Z,99.90
2018-07-10T19:26:40.415Z,99.90
2018-07-10T19:29:20.692Z,99.90
2018-07-10T19:31:51.155Z,99.90
2018-07-10T19:34:24.463Z,99.90
2018-07-10T19:36:53.885Z,99.90
2018-07-10T19:39:24.394Z,99.90
2018-07-10T19:41:53.908Z,99.90
2018-07-10T19:44:23.541Z,99.90
2018-07-10T19:46:53.439Z,99.90
2018-07-10T20:03:37.683Z,99.90
2018-07-10T20:06:13.144Z,99.90
2018-07-10T20:08:46.849Z,99.90
2018-07-10T20:11:27.106Z,99.90
2018-07-10T20:13:56.932Z,99.90
2018-07-10T20:16:39.295Z,99.90
2018-07-10T20:19:17.023Z,99.90
2018-07-10T20:22:10.036Z,99.90
2018-07-10T20:24:44.133Z,99.90
2018-07-10T20:29:29.413Z,99.90
2018-07-10T20:32:03.785Z,99.90
2018-07-10T20:34:49.514Z,99.90
2018-07-10T20:37:33.513Z,99.90
2018-07-10T20:40:02.938Z,99.90
2018-07-10T20:42:37.502Z,99.90
2018-07-10T20:45:08.402Z,99.90
2018-07-10T20:47:53.599Z,99.90
2018-07-10T20:50:35.037Z,99.90
2018-07-10T20:55:15.298Z,99.90
2018-07-10T20:57:58.815Z,99.90
2018-07-10T21:00:30.958Z,99.90
2018-07-10T21:03:40.237Z,99.90
2018-07-10T21:06:19.955Z,99.90
2018-07-10T21:09:09.122Z,99.90
2018-07-10T21:12:13.412Z,99.90
2018-07-10T21:15:01.069Z,99.90
2018-07-10T21:18:38.432Z,99.90
2018-07-10T21:21:21.925Z,99.90
2018-07-10T21:24:26.121Z,99.90
2018-07-10T21:27:01.199Z,99.90
2018-07-10T21:30:36.967Z,99.90
2018-07-10T21:33:10.798Z,99.90
2018-07-10T21:35:48.419Z,99.90
2018-07-10T21:38:28.665Z,99.90
2018-07-10T21:41:05.700Z,99.90
2018-07-10T21:43:46.826Z,99.90
2018-07-10T21:48:31.184Z,99.90
2018-07-10T21:51:00.564Z,99.90
2018-07-10T21:53:30.020Z,99.90
2018-07-10T21:55:59.550Z,99.90
2018-07-10T21:58:28.944Z,99.90
2018-07-10T22:02:04.672Z,99.90
2018-07-10T22:04:35.289Z,99.90
2018-07-10T22:07:06.492Z,99.90
2018-07-10T22:09:37.449Z,99.90
2018-07-10T22:12:10.738Z,99.90
2018-07-10T22:14:40.308Z,99.90
2018-07-10T22:17:15.967Z,99.90
2018-07-10T22:19:46.152Z,99.90
2018-07-10T22:22:22.606Z,99.90
2018-07-10T22:24:52.958Z,99.90
2018-07-10T22:27:22.981Z,99.90
2018-07-10T22:30:03.079Z,99.90
2018-07-10T22:32:41.076Z,99.90
2018-07-10T22:35:10.436Z,99.90
2018-07-10T22:37:39.868Z,99.90
2018-07-10T22:40:09.857Z,99.90
2018-07-10T22:42:39.571Z,99.90
2018-07-10T22:45:09.205Z,99.90
2018-07-10T22:47:40.869Z,99.90
2018-07-10T22:50:13.493Z,99.90
2018-07-10T22:52:46.491Z,99.90
2018-07-10T22:55:19.093Z,99.90
2018-07-10T22:57:48.803Z,99.90
2018-07-10T23:00:36.064Z,99.90
2018-07-10T23:03:23.205Z,99.90
2018-07-10T23:05:53.993Z,99.90
2018-07-10T23:08:36.141Z,99.90
2018-07-10T23:11:07.996Z,99.90
2018-07-10T23:13:42.060Z,99.90
2018-07-10T23:16:11.559Z,99.90
2018-07-10T23:18:42.082Z,99.90
2018-07-10T23:21:19.678Z,99.90
2018-07-10T23:23:49.486Z,99.90
2018-07-10T23:26:20.243Z,99.90
2018-07-10T23:28:53.133Z,99.90
2018-07-10T23:31:27.438Z,99.90
2018-07-10T23:34:05.628Z,99.90
2018-07-10T23:36:37.263Z,99.90
2018-07-10T23:39:09.144Z,99.90
2018-07-10T23:42:11.284Z,99.90
2018-07-10T23:44:42.847Z,99.90
2018-07-10T23:47:20.315Z,99.90
2018-07-10T23:49:53.873Z,99.90
2018-07-10T23:52:36.870Z,99.90
2018-07-10T23:55:06.265Z,99.90
2018-07-10T23:57:35.669Z,99.90
